createdAt,value
2019-03-12T00:01:42.385Z,1.36
2019-03-12T00:04:13.034Z,1.27
2019-03-12T00:06:43.708Z,1.30
2019-03-12T00:09:14.222Z,1.37
2019-03-12T00:11:44.786Z,1.47
2019-03-12T00:14:15.434Z,1.53
2019-03-12T00:16:46.154Z,1.60
2019-03-12T00:19:17.148Z,1.63
2019-03-12T00:21:47.611Z,1.66
2019-03-12T00:24:18.288Z,1.67
2019-03-12T00:26:48.769Z,1.72
2019-03-12T00:29:19.463Z,1.70
2019-03-12T00:31:50.000Z,1.72
2019-03-12T00:34:21.158Z,1.76
2019-03-12T00:36:51.688Z,1.82
2019-03-12T00:39:22.073Z,1.78
2019-03-12T00:41:53.277Z,1.81
2019-03-12T00:44:24.507Z,1.83
2019-03-12T00:46:55.885Z,1.85
2019-03-12T00:49:27.138Z,1.90
2019-03-12T00:51:58.423Z,1.90
2019-03-12T00:54:29.003Z,1.93
2019-03-12T00:56:59.504Z,1.94
2019-03-12T00:59:29.969Z,1.91
2019-03-12T01:02:00.523Z,1.88
2019-03-12T01:04:31.112Z,1.83
2019-03-12T01:07:01.663Z,1.86
2019-03-12T01:09:32.172Z,1.83
2019-03-12T01:12:02.757Z,1.82
2019-03-12T01:14:33.293Z,1.76
2019-03-12T01:17:04.262Z,1.76
2019-03-12T01:19:34.875Z,1.77
2019-03-12T01:22:05.417Z,1.80
2019-03-12T01:24:35.729Z,1.79
2019-03-12T01:27:06.418Z,1.79
2019-03-12T01:29:36.904Z,1.80
2019-03-12T01:32:07.732Z,1.77
2019-03-12T01:34:38.252Z,1.78
2019-03-12T01:37:08.576Z,1.81
2019-03-12T01:39:39.053Z,1.81
2019-03-12T01:42:09.559Z,1.82
2019-03-12T01:44:40.075Z,1.82
2019-03-12T01:47:10.598Z,1.83
2019-03-12T01:49:41.048Z,1.81
2019-03-12T01:52:11.931Z,1.81
2019-03-12T01:54:42.318Z,1.84
2019-03-12T01:57:12.913Z,1.87
2019-03-12T01:59:43.309Z,1.84
2019-03-12T02:02:13.860Z,1.88
2019-03-12T02:04:44.331Z,1.89
2019-03-12T02:07:14.763Z,1.88
2019-03-12T02:09:45.278Z,1.80
2019-03-12T02:12:15.859Z,1.83
2019-03-12T02:14:46.389Z,1.80
2019-03-12T02:17:16.804Z,1.81
2019-03-12T02:19:47.233Z,1.84
2019-03-12T02:22:17.743Z,1.83
2019-03-12T02:24:52.783Z,1.79
2019-03-12T02:27:20.462Z,1.83
2019-03-12T02:29:50.897Z,1.80
2019-03-12T02:32:21.300Z,1.82
2019-03-12T02:34:51.708Z,1.82
2019-03-12T02:37:22.235Z,1.77
2019-03-12T02:39:52.640Z,1.84
2019-03-12T02:42:23.038Z,1.81
2019-03-12T02:44:53.474Z,1.76
2019-03-12T02:47:24.088Z,1.79
2019-03-12T02:49:54.653Z,1.76
2019-03-12T02:52:25.227Z,1.80
2019-03-12T02:54:55.640Z,1.83
2019-03-12T02:57:26.161Z,1.83
2019-03-12T02:59:56.679Z,1.75
2019-03-12T03:02:27.719Z,1.82
2019-03-12T03:04:58.321Z,1.77
2019-03-12T03:07:47.729Z,1.81
2019-03-12T03:10:18.287Z,1.85
2019-03-12T03:12:49.021Z,1.86
2019-03-12T03:15:22.807Z,1.86
2019-03-12T03:17:53.275Z,1.79
2019-03-12T03:20:23.904Z,1.68
2019-03-12T03:22:54.492Z,1.60
2019-03-12T03:25:25.053Z,1.52
2019-03-12T03:27:55.637Z,1.42
2019-03-12T03:30:27.082Z,1.27
2019-03-12T03:32:58.164Z,1.24
2019-03-12T03:35:28.612Z,1.24
2019-03-12T03:37:59.186Z,1.27
2019-03-12T03:40:29.623Z,1.30
2019-03-12T03:43:00.223Z,1.29
2019-03-12T03:45:30.721Z,1.32
2019-03-12T03:48:01.163Z,1.40
2019-03-12T03:50:31.919Z,1.46
2019-03-12T03:53:02.429Z,1.51
2019-03-12T03:55:33.039Z,1.55
2019-03-12T03:58:03.658Z,1.56
2019-03-12T04:00:34.299Z,1.56
2019-03-12T04:03:04.978Z,1.55
2019-03-12T04:05:35.576Z,1.52
2019-03-12T04:08:06.086Z,1.54
2019-03-12T04:10:36.650Z,1.55
2019-03-12T04:13:07.194Z,1.55
2019-03-12T04:15:38.019Z,1.57
2019-03-12T04:18:08.508Z,1.57
2019-03-12T04:20:38.990Z,1.55
2019-03-12T04:23:09.563Z,1.53
2019-03-12T04:25:39.983Z,1.52
2019-03-12T04:28:10.589Z,1.43
2019-03-12T04:30:41.033Z,1.38
2019-03-12T04:34:02.938Z,1.21
2019-03-12T04:36:33.398Z,1.11
2019-03-12T04:39:05.399Z,0.99
2019-03-12T04:41:35.837Z,0.90
2019-03-12T04:44:06.384Z,0.85
2019-03-12T04:46:36.791Z,0.77
2019-03-12T04:49:07.232Z,0.73
2019-03-12T04:51:38.347Z,0.71
2019-03-12T04:54:08.884Z,0.73
2019-03-12T04:56:39.353Z,0.71
2019-03-12T04:59:09.978Z,0.62
2019-03-12T05:01:40.523Z,0.57
2019-03-12T05:04:11.027Z,0.55
2019-03-12T05:06:41.442Z,0.52
2019-03-12T05:09:11.948Z,0.50
2019-03-12T05:11:42.423Z,0.47
2019-03-12T05:14:28.030Z,0.43
2019-03-12T05:17:05.757Z,0.40
2019-03-12T05:19:36.603Z,0.38
2019-03-12T05:22:07.157Z,0.42
2019-03-12T05:24:37.757Z,0.38
2019-03-12T05:27:08.499Z,0.37
2019-03-12T05:29:38.907Z,0.39
2019-03-12T05:32:09.539Z,0.42
2019-03-12T05:34:40.320Z,0.41
2019-03-12T05:37:10.819Z,0.46
2019-03-12T05:39:41.568Z,0.47
2019-03-12T05:42:12.388Z,0.53
2019-03-12T05:44:42.977Z,0.54
2019-03-12T05:47:13.349Z,0.66
2019-03-12T05:49:44.053Z,0.77
2019-03-12T05:52:15.053Z,0.81
2019-03-12T05:54:45.546Z,0.94
2019-03-12T05:57:16.098Z,0.96
2019-03-12T05:59:46.491Z,0.99
2019-03-12T06:02:17.196Z,1.05
2019-03-12T06:04:47.857Z,1.04
2019-03-12T06:07:18.550Z,1.13
2019-03-12T06:09:49.396Z,1.15
2019-03-12T06:12:20.043Z,1.45
2019-03-12T06:14:50.646Z,1.50
2019-03-12T06:17:21.986Z,1.48
2019-03-12T06:19:52.569Z,1.48
2019-03-12T06:22:23.149Z,1.60
2019-03-12T06:24:53.628Z,1.71
2019-03-12T06:27:25.753Z,1.82
2019-03-12T06:29:56.313Z,1.84
2019-03-12T06:32:40.129Z,1.97
2019-03-12T06:35:21.978Z,1.80
2019-03-12T06:38:01.150Z,2.01
2019-03-12T06:40:43.076Z,2.06
2019-03-12T06:43:32.410Z,2.02
2019-03-12T06:46:23.443Z,2.04
2019-03-12T06:49:12.727Z,2.07
2019-03-12T06:52:02.220Z,1.97
2019-03-12T06:54:39.723Z,2.16
2019-03-12T06:57:20.969Z,2.19
2019-03-12T07:00:02.296Z,2.40
2019-03-12T07:02:53.887Z,2.72
2019-03-12T07:05:43.300Z,3.50
2019-03-12T07:08:32.705Z,3.26
2019-03-12T07:11:22.117Z,3.14
2019-03-12T07:14:11.565Z,3.22
2019-03-12T07:17:00.938Z,3.78
2019-03-12T07:19:50.392Z,3.80
2019-03-12T07:22:39.866Z,3.91
2019-03-12T07:25:29.503Z,3.60
2019-03-12T07:28:09.999Z,3.78
2019-03-12T07:30:54.443Z,3.83
2019-03-12T07:33:34.304Z,4.37
2019-03-12T07:36:11.466Z,4.95
2019-03-12T07:39:00.935Z,5.10
2019-03-12T07:41:43.918Z,5.55
2019-03-12T07:44:33.380Z,6.61
2019-03-12T07:47:10.099Z,6.20
2019-03-12T07:49:59.425Z,7.99
2019-03-12T07:52:48.591Z,8.26
2019-03-12T07:55:38.046Z,6.43
2019-03-12T07:58:35.632Z,6.98
2019-03-12T08:01:18.675Z,7.15
2019-03-12T08:04:07.956Z,5.70
2019-03-12T08:06:57.357Z,6.13
2019-03-12T08:09:35.772Z,6.43
2019-03-12T08:12:16.628Z,6.30
2019-03-12T08:15:02.047Z,7.50
2019-03-12T08:17:42.294Z,8.41
2019-03-12T08:20:17.818Z,10.79
2019-03-12T08:22:54.853Z,12.06
2019-03-12T08:25:44.628Z,11.70
2019-03-12T08:28:25.573Z,10.97
2019-03-12T08:31:03.101Z,7.68
2019-03-12T08:33:51.012Z,7.25
2019-03-12T08:36:34.567Z,6.84
2019-03-12T08:39:25.793Z,8.05
2019-03-12T08:42:15.208Z,9.57
2019-03-12T08:45:04.658Z,9.41
2019-03-12T08:47:53.904Z,9.64
2019-03-12T08:50:34.407Z,9.50
2019-03-12T08:53:23.740Z,9.02
2019-03-12T08:56:13.180Z,11.12
2019-03-12T08:59:02.686Z,12.41
2019-03-12T09:01:53.432Z,12.58
2019-03-12T09:04:42.715Z,10.65
2019-03-12T09:07:20.184Z,9.30
2019-03-12T09:10:05.142Z,9.12
2019-03-12T09:12:54.683Z,7.98
2019-03-12T09:15:45.819Z,6.86
2019-03-12T09:18:32.935Z,6.59
2019-03-12T09:21:22.507Z,7.09
2019-03-12T09:24:12.157Z,8.93
2019-03-12T09:26:55.469Z,8.17
2019-03-12T09:29:44.663Z,8.36
2019-03-12T09:32:33.998Z,9.44
2019-03-12T09:35:24.077Z,11.84
2019-03-12T09:38:05.646Z,10.85
2019-03-12T09:40:46.228Z,9.75
2019-03-12T09:43:35.458Z,10.00
2019-03-12T09:46:24.864Z,11.80
2019-03-12T09:49:14.573Z,11.98
2019-03-12T09:52:04.037Z,11.91
2019-03-12T09:54:46.157Z,9.29
2019-03-12T09:57:35.573Z,9.10
2019-03-12T10:00:27.218Z,8.09
2019-03-12T10:03:13.385Z,7.43
2019-03-12T10:06:02.872Z,7.10
2019-03-12T10:08:52.203Z,7.39
2019-03-12T10:11:35.697Z,6.67
2019-03-12T10:14:25.199Z,6.90
2019-03-12T10:17:14.554Z,7.20
2019-03-12T10:20:04.145Z,7.00
2019-03-12T10:22:53.443Z,7.29
2019-03-12T10:25:43.089Z,7.15
2019-03-12T10:28:34.205Z,7.40
2019-03-12T10:31:17.542Z,7.46
2019-03-12T10:34:07.048Z,6.86
2019-03-12T10:36:48.576Z,6.86
2019-03-12T10:40:10.216Z,7.09
2019-03-12T10:43:06.864Z,7.24
2019-03-12T10:45:42.974Z,6.89
2019-03-12T10:48:13.522Z,7.14
2019-03-12T10:50:44.177Z,7.52
2019-03-12T10:53:14.830Z,7.72
2019-03-12T10:55:48.911Z,7.61
2019-03-12T10:58:19.502Z,7.60
2019-03-12T11:00:50.069Z,7.28
2019-03-12T11:03:20.749Z,7.40
2019-03-12T11:05:52.359Z,7.42
2019-03-12T11:08:23.257Z,7.35
2019-03-12T11:10:54.003Z,7.12
2019-03-12T11:13:24.593Z,6.73
2019-03-12T11:15:55.123Z,6.48
2019-03-12T11:18:25.621Z,6.16
2019-03-12T11:20:58.637Z,5.73
2019-03-12T11:23:28.381Z,5.98
2019-03-12T11:25:58.899Z,6.32
2019-03-12T11:28:29.454Z,6.45
2019-03-12T11:30:59.893Z,6.46
2019-03-12T11:33:30.519Z,6.49
2019-03-12T11:36:01.069Z,6.71
2019-03-12T11:38:31.665Z,7.09
2019-03-12T11:41:02.282Z,7.93
2019-03-12T11:43:33.062Z,8.43
2019-03-12T11:46:03.649Z,7.70
2019-03-12T11:48:34.429Z,7.43
2019-03-12T11:51:05.309Z,7.34
2019-03-12T11:53:36.445Z,7.56
2019-03-12T11:56:07.300Z,7.15
2019-03-12T11:58:37.990Z,7.60
2019-03-12T12:01:09.561Z,8.76
2019-03-12T12:03:40.262Z,9.71
2019-03-12T12:06:10.991Z,9.78
2019-03-12T12:08:41.732Z,10.30
2019-03-12T12:11:12.557Z,8.99
2019-03-12T12:13:43.188Z,9.03
2019-03-12T12:16:13.769Z,8.95
2019-03-12T12:18:47.614Z,7.72
2019-03-12T12:21:18.652Z,8.01
2019-03-12T12:23:49.408Z,8.08
2019-03-12T12:26:20.071Z,8.33
2019-03-12T12:28:50.628Z,8.36
2019-03-12T12:31:21.126Z,8.37
2019-03-12T12:33:52.165Z,8.41
2019-03-12T12:36:22.648Z,7.92
2019-03-12T12:38:53.985Z,7.35
2019-03-12T12:41:24.523Z,7.37
2019-03-12T12:43:55.193Z,7.38
2019-03-12T12:46:25.866Z,7.63
2019-03-12T12:48:56.447Z,7.77
2019-03-12T12:51:27.030Z,7.61
2019-03-12T12:53:57.667Z,7.42
2019-03-12T12:56:28.224Z,7.06
2019-03-12T12:58:58.836Z,6.94
2019-03-12T13:01:29.653Z,6.93
2019-03-12T13:04:00.141Z,7.03
2019-03-12T13:06:30.652Z,7.61
2019-03-12T13:09:01.774Z,8.10
2019-03-12T13:11:32.307Z,8.15
2019-03-12T13:14:02.888Z,7.97
2019-03-12T13:16:33.540Z,7.90
2019-03-12T13:19:04.039Z,8.08
2019-03-12T13:21:34.523Z,8.05
2019-03-12T13:24:05.207Z,7.86
2019-03-12T13:26:35.750Z,7.63
2019-03-12T13:29:06.413Z,7.58
2019-03-12T13:31:37.028Z,7.60
2019-03-12T13:34:07.622Z,7.38
2019-03-12T13:36:38.118Z,7.41
2019-03-12T13:39:09.804Z,7.84
2019-03-12T13:41:40.456Z,8.37
2019-03-12T13:44:11.126Z,8.51
2019-03-12T13:46:41.709Z,8.59
2019-03-12T13:49:12.984Z,8.49
2019-03-12T13:51:43.567Z,8.65
2019-03-12T13:54:14.215Z,8.57
2019-03-12T13:56:44.723Z,8.67
2019-03-12T13:59:15.226Z,8.62
2019-03-12T14:01:45.708Z,8.44
2019-03-12T14:04:16.356Z,7.92
2019-03-12T14:06:47.024Z,7.86
2019-03-12T14:09:18.024Z,8.06
2019-03-12T14:11:48.698Z,8.27
2019-03-12T14:14:19.253Z,8.05
2019-03-12T14:16:49.803Z,7.96
2019-03-12T14:19:20.292Z,8.08
2019-03-12T14:21:51.227Z,8.20
2019-03-12T14:24:21.695Z,8.18
2019-03-12T14:26:52.352Z,8.11
2019-03-12T14:29:22.862Z,7.98
2019-03-12T14:31:53.396Z,7.74
2019-03-12T14:34:26.806Z,7.66
2019-03-12T14:36:56.358Z,7.69
2019-03-12T14:39:26.809Z,7.49
2019-03-12T14:41:57.619Z,7.48
2019-03-12T14:44:28.079Z,7.46
2019-03-12T14:46:58.593Z,7.58
2019-03-12T14:49:29.202Z,7.78
2019-03-12T14:52:28.633Z,7.66
2019-03-12T14:54:59.626Z,7.49
2019-03-12T14:57:30.252Z,7.43
2019-03-12T15:00:00.805Z,7.23
2019-03-12T15:02:31.718Z,7.14
2019-03-12T15:05:02.257Z,7.21
2019-03-12T15:07:32.854Z,7.37
2019-03-12T15:10:03.514Z,7.44
2019-03-12T15:12:34.801Z,7.53
2019-03-12T15:15:06.414Z,7.64
2019-03-12T15:17:37.291Z,7.56
2019-03-12T15:20:09.534Z,7.45
2019-03-12T15:22:40.546Z,7.29
2019-03-12T15:25:11.529Z,7.05
2019-03-12T15:27:42.082Z,6.85
2019-03-12T15:30:17.064Z,6.74
2019-03-12T15:32:47.609Z,6.57
2019-03-12T15:35:18.338Z,6.51
2019-03-12T15:37:48.868Z,6.47
2019-03-12T15:40:19.725Z,6.44
2019-03-12T15:42:50.428Z,6.42
2019-03-12T15:45:21.033Z,6.45
2019-03-12T15:47:51.654Z,6.48
2019-03-12T15:50:22.292Z,6.43
2019-03-12T15:52:52.885Z,6.45
2019-03-12T15:55:23.707Z,6.43
2019-03-12T15:57:54.353Z,6.45
2019-03-12T16:00:27.986Z,6.42
2019-03-12T16:02:58.599Z,6.34
2019-03-12T16:05:29.158Z,6.35
2019-03-12T16:07:59.636Z,6.23
2019-03-12T16:10:30.317Z,6.21
2019-03-12T16:13:00.923Z,6.14
2019-03-12T16:15:31.863Z,6.06
2019-03-12T16:18:08.757Z,6.01
2019-03-12T16:20:39.354Z,5.89
2019-03-12T16:23:09.952Z,5.77
2019-03-12T16:25:40.699Z,5.68
2019-03-12T16:28:11.439Z,5.63
2019-03-12T16:30:42.095Z,5.59
2019-03-12T16:33:13.695Z,5.55
2019-03-12T16:35:50.519Z,5.45
2019-03-12T16:38:21.022Z,5.39
2019-03-12T16:40:51.487Z,5.26
2019-03-12T16:43:24.125Z,5.21
2019-03-12T16:45:54.852Z,5.17
2019-03-12T16:48:25.596Z,5.07
2019-03-12T16:50:58.589Z,5.05
2019-03-12T16:53:29.195Z,4.90
2019-03-12T16:55:59.948Z,4.70
2019-03-12T16:58:30.546Z,4.56
2019-03-12T17:01:01.285Z,4.37
2019-03-12T17:03:33.419Z,4.32
2019-03-12T17:06:03.993Z,4.32
2019-03-12T17:08:34.772Z,4.23
2019-03-12T17:11:05.658Z,4.25
2019-03-12T17:13:37.357Z,4.17
2019-03-12T17:16:08.588Z,4.12
2019-03-12T17:18:47.512Z,4.02
2019-03-12T17:21:18.394Z,4.01
2019-03-12T17:23:53.359Z,3.90
2019-03-12T17:26:24.093Z,4.00
2019-03-12T17:28:55.928Z,3.84
2019-03-12T17:31:33.414Z,3.88
2019-03-12T17:34:05.334Z,3.90
2019-03-12T17:36:37.588Z,3.75
2019-03-12T17:39:10.768Z,3.63
2019-03-12T17:41:45.578Z,3.48
2019-03-12T17:44:17.324Z,3.57
2019-03-12T17:46:53.115Z,3.45
2019-03-12T17:49:26.948Z,3.37
2019-03-12T17:51:57.628Z,3.29
2019-03-12T17:54:32.116Z,3.28
2019-03-12T17:57:02.115Z,3.28
2019-03-12T17:59:33.913Z,3.38
2019-03-12T18:02:05.818Z,3.41
2019-03-12T18:04:36.528Z,3.64
2019-03-12T18:07:07.273Z,3.78
2019-03-12T18:09:38.899Z,3.81
2019-03-12T18:12:09.770Z,3.90
2019-03-12T18:14:45.084Z,3.88
2019-03-12T18:17:21.594Z,3.87
2019-03-12T18:19:55.394Z,3.83
2019-03-12T18:22:31.587Z,3.83
2019-03-12T18:25:05.491Z,3.88
2019-03-12T18:27:38.659Z,3.95
2019-03-12T18:30:12.884Z,4.01
2019-03-12T18:32:52.640Z,4.13
2019-03-12T18:37:46.113Z,4.13
2019-03-12T18:40:21.021Z,4.11
2019-03-12T18:42:56.942Z,4.00
2019-03-12T18:45:30.033Z,3.97
2019-03-12T18:48:01.133Z,3.97
2019-03-12T18:50:36.965Z,3.90
2019-03-12T18:53:11.377Z,4.06
2019-03-12T18:56:08.968Z,4.17
2019-03-12T18:58:40.948Z,4.12
2019-03-12T19:01:20.473Z,4.09
2019-03-12T19:03:57.293Z,4.14
2019-03-12T19:06:41.121Z,4.08
2019-03-12T19:09:15.218Z,4.03
2019-03-12T19:11:57.717Z,3.96
2019-03-12T19:14:30.827Z,3.96
2019-03-12T19:17:10.167Z,3.83
2019-03-12T19:19:40.885Z,3.75
2019-03-12T19:22:15.808Z,3.72
2019-03-12T19:24:46.670Z,3.57
2019-03-12T19:27:19.463Z,3.59
2019-03-12T19:29:50.197Z,3.55
2019-03-12T19:32:31.316Z,3.63
2019-03-12T19:35:09.107Z,3.49
2019-03-12T19:37:42.379Z,3.38
2019-03-12T19:40:20.322Z,3.32
2019-03-12T19:42:53.708Z,3.31
2019-03-12T19:45:31.728Z,3.41
2019-03-12T19:48:04.373Z,3.45
2019-03-12T19:50:43.594Z,3.25
2019-03-12T19:53:17.953Z,3.50
2019-03-12T19:56:10.018Z,3.27
2019-03-12T19:58:45.314Z,3.31
2019-03-12T20:01:19.877Z,3.31
2019-03-12T20:06:28.503Z,3.12
2019-03-12T20:09:05.690Z,3.22
2019-03-12T20:12:12.001Z,3.19
2019-03-12T20:15:43.846Z,3.05
2019-03-12T20:19:07.499Z,3.19
2019-03-12T20:22:36.537Z,3.19
2019-03-12T20:26:08.025Z,3.20
2019-03-12T20:29:37.076Z,3.17
2019-03-12T20:32:51.631Z,3.06
2019-03-12T20:36:25.345Z,3.04
2019-03-12T20:39:57.103Z,2.90
2019-03-12T20:43:22.096Z,2.89
2019-03-12T20:46:53.597Z,2.86
2019-03-12T20:50:20.490Z,2.88
2019-03-12T20:53:45.992Z,2.99
2019-03-12T20:57:14.131Z,2.97
2019-03-12T21:00:38.818Z,2.89
2019-03-12T21:03:56.798Z,3.01
2019-03-12T21:07:20.128Z,2.94
2019-03-12T21:10:48.013Z,2.92
2019-03-12T21:14:17.176Z,2.81
2019-03-12T21:17:49.823Z,2.84
2019-03-12T21:21:07.479Z,2.85
2019-03-12T21:24:24.428Z,2.76
2019-03-12T21:27:44.102Z,2.81
2019-03-12T21:30:13.637Z,2.76
2019-03-12T21:32:52.777Z,2.67
2019-03-12T21:35:27.622Z,2.70
2019-03-12T21:37:59.336Z,2.64
2019-03-12T21:40:29.915Z,2.64
2019-03-12T21:43:00.570Z,2.66
2019-03-12T21:45:31.613Z,2.75
2019-03-12T21:48:02.209Z,2.86
2019-03-12T21:50:32.731Z,2.82
2019-03-12T21:53:03.446Z,2.73
2019-03-12T21:55:37.807Z,2.77
2019-03-12T21:58:08.696Z,2.81
2019-03-12T22:00:39.239Z,2.80
2019-03-12T22:03:09.894Z,2.85
2019-03-12T22:05:40.428Z,2.88
2019-03-12T22:08:10.957Z,2.83
2019-03-12T22:10:42.151Z,2.87
2019-03-12T22:13:12.616Z,2.89
2019-03-12T22:15:43.245Z,2.97
2019-03-12T22:18:13.811Z,3.10
2019-03-12T22:20:44.382Z,3.22
2019-03-12T22:23:18.645Z,3.13
2019-03-12T22:25:49.231Z,3.18
2019-03-12T22:28:19.875Z,3.11
2019-03-12T22:30:50.408Z,3.10
2019-03-12T22:33:20.877Z,3.22
2019-03-12T22:35:51.485Z,3.34
2019-03-12T22:38:21.913Z,3.26
2019-03-12T22:40:52.680Z,3.27
2019-03-12T22:43:23.277Z,3.33
2019-03-12T22:45:53.805Z,3.38
2019-03-12T22:48:24.238Z,3.30
2019-03-12T22:50:54.736Z,3.31
2019-03-12T22:53:25.303Z,3.26
2019-03-12T22:55:56.034Z,3.14
2019-03-12T22:58:26.370Z,3.04
2019-03-12T23:00:58.302Z,3.03
2019-03-12T23:03:28.963Z,2.99
2019-03-12T23:05:59.524Z,3.02
2019-03-12T23:08:30.154Z,3.02
2019-03-12T23:11:00.710Z,3.03
2019-03-12T23:13:34.009Z,2.94
2019-03-12T23:16:04.776Z,2.86
2019-03-12T23:18:35.370Z,2.83
2019-03-12T23:21:06.071Z,2.81
2019-03-12T23:23:36.996Z,2.79
2019-03-12T23:26:07.487Z,2.79
2019-03-12T23:28:38.087Z,2.71
2019-03-12T23:31:08.821Z,2.69
2019-03-12T23:33:39.451Z,2.63
2019-03-12T23:36:10.540Z,2.63
2019-03-12T23:38:41.419Z,2.67
2019-03-12T23:41:12.102Z,2.70
2019-03-12T23:43:42.601Z,2.69
2019-03-12T23:46:13.939Z,2.72
2019-03-12T23:48:44.480Z,2.81
2019-03-12T23:51:15.035Z,2.95
2019-03-12T23:53:45.570Z,2.89
2019-03-12T23:56:16.050Z,2.90
2019-03-12T23:58:46.578Z,2.89
